Terminal Aerodrome Forecast
Issued by NWS Rapid City, SD

Home | Current Version | Previous Version | Graphics & Text | Print | Product List | Glossary On
Versions: 1 2 3 4 5 6 7 8 9 10 11 12 13 14 15 16 17 18 19 20 21 22 23 24 25
000
FTUS43 KUNR 271800 AAA
TAFRAP
TAF AMD
KRAP 271857Z 2719/2818 11005KT P6SM BKN025 BKN070
     FM272100 11008KT P6SM SCT025 BKN100
      TEMPO 2722/2802 -SHRA BKN025
     FM280600 VRB05KT P6SM SCT100=

USA.gov is the U.S. government's official web portal to all federal, state and local government web resources and services.